Time;durP1;ratioP1;P1;durP2;ratioP2;P2;SDS_P1;SDS_P2;PMS_P1;PMS_P2;Temp;Humidity;BMP_temperature;BMP_pressure;BME280_temperature;BME280_humidity;BME280_pressure;Samples;Min_cycle;Max_cycle;Signal;HPM_P1;HPM_P2
2020/12/19 00:01:43;;;;;;;49.35;27.90;;;;;;;1.51;88.09;101213.64;1814618;79;20922;-71
2020/12/19 00:04:13;;;;;;;49.55;29.72;;;;;;;1.51;88.10;101216.20;1814656;79;21492;-71
2020/12/19 00:06:44;;;;;;;51.25;31.17;;;;;;;1.48;88.08;101211.92;1814644;79;20894;-70
2020/12/19 00:09:12;;;;;;;50.52;30.57;;;;;;;1.48;88.16;101215.78;1814607;79;21201;-70
2020/12/19 00:11:44;;;;;;;49.10;28.07;;;;;;;1.49;88.21;101213.64;1814531;79;20942;-70
2020/12/19 00:14:12;;;;;;;43.17;26.65;;;;;;;1.50;88.22;101210.64;1814719;79;21301;-70
2020/12/19 00:16:40;;;;;;;54.30;31.95;;;;;;;1.51;88.22;101205.94;1814641;79;21444;-70
2020/12/19 00:19:09;;;;;;;51.15;30.65;;;;;;;1.51;88.29;101205.52;1814608;79;21551;-71
2020/12/19 00:21:37;;;;;;;54.60;30.57;;;;;;;1.53;88.23;101202.95;1814579;79;21310;-71
2020/12/19 00:24:06;;;;;;;52.13;31.35;;;;;;;1.54;88.22;101200.81;1814582;79;20993;-71
2020/12/19 00:26:40;;;;;;;49.85;30.72;;;;;;;1.54;88.24;101204.66;1814638;79;21369;-70
2020/12/19 00:29:10;;;;;;;55.12;29.57;;;;;;;1.55;88.26;101203.80;1814567;79;20985;-71
2020/12/19 00:31:38;;;;;;;51.73;29.87;;;;;;;1.55;88.24;101197.39;1814718;79;21448;-71
2020/12/19 00:34:06;;;;;;;54.10;31.50;;;;;;;1.55;88.27;101193.11;1814683;79;22291;-71
2020/12/19 00:36:35;;;;;;;55.55;29.95;;;;;;;1.55;88.33;101190.97;1814441;79;20954;-71
2020/12/19 00:39:06;;;;;;;49.58;29.02;;;;;;;1.55;88.32;101198.23;1785576;79;20942;-71
2020/12/19 00:41:34;;;;;;;45.52;28.10;;;;;;;1.57;88.34;101204.23;1758489;81;20938;-71
2020/12/19 00:44:02;;;;;;;48.17;27.80;;;;;;;1.58;88.20;101205.09;1758560;81;20895;-71
2020/12/19 00:46:31;;;;;;;49.83;27.52;;;;;;;1.57;88.17;101202.95;1758518;81;21640;-70
2020/12/19 00:48:59;;;;;;;44.30;25.50;;;;;;;1.55;88.14;101196.95;1758431;80;20969;-70
2020/12/19 00:51:27;;;;;;;40.83;24.20;;;;;;;1.55;88.22;101200.81;1758515;81;21017;-70
2020/12/19 00:53:55;;;;;;;44.75;26.33;;;;;;;1.56;88.31;101197.81;1758492;80;20934;-70
2020/12/19 00:56:27;;;;;;;45.05;25.15;;;;;;;1.57;88.32;101199.09;1758486;81;20934;-70
2020/12/19 00:58:55;;;;;;;45.30;26.45;;;;;;;1.58;88.25;101199.95;1758543;81;21669;-70
2020/12/19 01:01:25;;;;;;;45.45;25.50;;;;;;;1.59;88.28;101198.67;1758406;80;21512;-70
2020/12/19 01:03:55;;;;;;;48.68;25.45;;;;;;;1.60;88.31;101198.23;1758505;81;20950;-70
2020/12/19 01:06:24;;;;;;;42.58;26.23;;;;;;;1.61;88.19;101199.92;1758604;81;21523;-71
2020/12/19 01:08:56;;;;;;;45.03;25.92;;;;;;;1.61;88.41;101196.06;1758556;81;20938;-71
2020/12/19 01:11:27;;;;;;;44.45;24.57;;;;;;;1.63;88.40;101201.62;1757087;81;21158;-70
2020/12/19 01:13:56;;;;;;;41.00;23.95;;;;;;;1.63;88.26;101204.62;1758503;81;21638;-70
2020/12/19 01:16:27;;;;;;;45.40;26.05;;;;;;;1.63;88.19;101209.33;1758473;81;20938;-71
2020/12/19 01:18:57;;;;;;;43.83;25.55;;;;;;;1.63;88.10;101208.48;1758514;81;20926;-70
2020/12/19 01:21:28;;;;;;;41.37;25.27;;;;;;;1.61;88.09;101215.32;1758526;80;21940;-70
2020/12/19 01:23:56;;;;;;;41.60;25.12;;;;;;;1.59;88.10;101209.36;1758533;81;21264;-71
2020/12/19 01:26:24;;;;;;;44.98;25.23;;;;;;;1.58;88.16;101210.22;1758470;81;20950;-70
2020/12/19 01:28:53;;;;;;;42.30;25.43;;;;;;;1.57;88.17;101214.50;1758487;81;20938;-70
2020/12/19 01:31:22;;;;;;;44.53;25.15;;;;;;;1.57;88.24;101213.22;1758449;81;20950;-70
2020/12/19 01:33:51;;;;;;;43.83;23.98;;;;;;;1.57;88.30;101216.20;1758516;81;21009;-70
2020/12/19 01:36:22;;;;;;;43.50;25.40;;;;;;;1.59;88.32;101209.36;1758454;81;21256;-70
2020/12/19 01:38:51;;;;;;;46.75;26.70;;;;;;;1.60;88.32;101212.36;1771581;79;21001;-70
2020/12/19 01:41:21;;;;;;;42.55;24.60;;;;;;;1.60;88.26;101213.64;1803453;79;20942;-70
2020/12/19 01:43:54;;;;;;;49.48;26.33;;;;;;;1.60;88.21;101213.18;1803371;79;20981;-70
2020/12/19 01:46:55;;;;;;;40.78;25.65;;;;;;;1.58;88.24;101208.94;1802904;79;20926;-70
2020/12/19 01:49:26;;;;;;;47.58;25.57;;;;;;;1.58;88.29;101213.64;1803530;79;22225;-70
2020/12/19 01:52:00;;;;;;;53.48;27.22;;;;;;;1.59;88.39;101215.35;1803081;79;20982;-71
2020/12/19 01:54:29;;;;;;;45.40;23.73;;;;;;;1.58;88.37;101210.22;1803443;79;21009;-70
2020/12/19 01:56:58;;;;;;;43.70;23.25;;;;;;;1.58;88.31;101213.64;1803340;79;21045;-70
2020/12/19 01:59:29;;;;;;;46.15;25.80;;;;;;;1.57;88.34;101210.65;1803574;79;21575;-70
2020/12/19 02:02:06;;;;;;;45.58;24.50;;;;;;;1.56;88.38;101217.92;1803493;79;22219;-70
2020/12/19 02:04:34;;;;;;;49.23;25.17;;;;;;;1.56;88.43;101215.35;1803357;79;20934;-70
2020/12/19 02:07:05;;;;;;;46.15;25.45;;;;;;;1.55;88.46;101213.64;1803397;79;20898;-70
2020/12/19 02:09:37;;;;;;;46.18;24.57;;;;;;;1.54;88.54;101215.78;1803373;79;20941;-70
2020/12/19 02:12:06;;;;;;;50.45;25.35;;;;;;;1.54;88.64;101214.50;1803437;79;20898;-70
2020/12/19 02:14:34;;;;;;;49.48;25.02;;;;;;;1.55;88.69;101210.22;1803436;79;21429;-71
2020/12/19 02:17:05;;;;;;;46.60;24.12;;;;;;;1.55;88.71;101214.07;1803331;79;20946;-70
2020/12/19 02:19:34;;;;;;;46.75;24.92;;;;;;;1.54;88.72;101208.08;1803441;79;20946;-71
2020/12/19 02:22:03;;;;;;;45.92;24.63;;;;;;;1.54;88.73;101203.37;1803364;79;20946;-71
2020/12/19 02:24:32;;;;;;;46.15;25.30;;;;;;;1.53;88.86;101206.80;1803427;79;20982;-71
2020/12/19 02:27:01;;;;;;;46.73;25.12;;;;;;;1.54;88.90;101207.23;1803408;79;21358;-71
2020/12/19 02:29:31;;;;;;;46.25;24.47;;;;;;;1.54;88.88;101206.80;1803322;79;20989;-71
2020/12/19 02:32:01;;;;;;;48.73;24.70;;;;;;;1.55;88.91;101207.66;1803520;79;21559;-71
2020/12/19 02:34:29;;;;;;;45.30;24.00;;;;;;;1.55;88.97;101205.94;1803453;79;20994;-71
2020/12/19 02:36:58;;;;;;;49.13;24.55;;;;;;;1.58;88.97;101201.23;1803380;79;20974;-70
2020/12/19 02:39:26;;;;;;;47.88;26.25;;;;;;;1.58;88.93;101196.10;1803298;79;21531;-71
2020/12/19 02:41:55;;;;;;;45.10;24.35;;;;;;;1.59;88.93;101198.67;1803442;79;21485;-70
2020/12/19 02:44:25;;;;;;;49.35;23.90;;;;;;;1.59;88.92;101190.97;1803403;79;20982;-71
2020/12/19 02:46:54;;;;;;;47.65;24.82;;;;;;;1.61;88.90;101191.79;1803466;79;21588;-70
2020/12/19 02:49:23;;;;;;;48.50;24.50;;;;;;;1.63;88.82;101196.92;1803461;79;20978;-71
2020/12/19 02:51:52;;;;;;;51.98;25.37;;;;;;;1.62;88.78;101202.48;1803647;79;22290;-71
2020/12/19 02:54:20;;;;;;;48.60;24.10;;;;;;;1.62;88.80;101208.05;1803543;79;20989;-70
2020/12/19 02:56:48;;;;;;;46.42;24.45;;;;;;;1.61;88.77;101201.20;1803496;79;20974;-70
2020/12/19 02:59:16;;;;;;;48.83;25.45;;;;;;;1.62;88.81;101204.20;1803524;79;21030;-70
2020/12/19 03:01:45;;;;;;;44.77;23.42;;;;;;;1.61;88.85;101206.34;1803697;79;20923;-70
2020/12/19 03:04:14;;;;;;;50.28;24.32;;;;;;;1.63;88.88;101213.18;1803542;79;21246;-70
2020/12/19 03:06:43;;;;;;;48.95;23.45;;;;;;;1.65;88.79;101214.47;1803488;79;20970;-70
2020/12/19 03:09:11;;;;;;;46.25;23.18;;;;;;;1.63;88.75;101211.90;1803530;79;20962;-70
2020/12/19 03:11:41;;;;;;;46.00;23.60;;;;;;;1.63;88.80;101211.90;1803491;79;20981;-70
2020/12/19 03:14:09;;;;;;;42.83;23.90;;;;;;;1.63;88.76;101217.46;1803568;79;20942;-70
2020/12/19 03:16:38;;;;;;;42.27;22.60;;;;;;;1.60;88.71;101217.49;1803511;79;21609;-70
2020/12/19 03:19:06;;;;;;;49.13;24.25;;;;;;;1.59;88.77;101218.34;1803587;79;21005;-70
2020/12/19 03:21:34;;;;;;;52.03;24.80;;;;;;;1.57;88.79;101215.78;1803558;79;20946;-70
2020/12/19 03:24:03;;;;;;;50.92;25.97;;;;;;;1.56;88.86;101217.06;1803513;79;20931;-70
2020/12/19 03:26:32;;;;;;;46.55;23.98;;;;;;;1.56;88.86;101215.35;1803575;79;21005;-70
2020/12/19 03:29:00;;;;;;;48.75;23.73;;;;;;;1.54;88.86;101213.64;1803628;79;22062;-70
2020/12/19 03:31:28;;;;;;;46.73;23.57;;;;;;;1.53;88.94;101217.06;1803431;79;20990;-70
2020/12/19 03:33:57;;;;;;;50.40;25.05;;;;;;;1.50;89.07;101214.06;1779242;79;21049;-70
2020/12/19 03:36:27;;;;;;;49.63;25.10;;;;;;;1.50;89.03;101208.08;1799911;79;21081;-70
2020/12/19 03:38:55;;;;;;;47.55;24.35;;;;;;;1.50;89.12;101208.08;1803552;79;20938;-70
2020/12/19 03:41:23;;;;;;;52.10;25.80;;;;;;;1.51;89.15;101205.94;1803552;79;21257;-70
2020/12/19 03:43:52;;;;;;;49.42;24.82;;;;;;;1.50;89.22;101209.36;1803430;79;20967;-70
2020/12/19 03:46:22;;;;;;;47.90;24.98;;;;;;;1.51;89.32;101200.81;1803565;79;20993;-70
2020/12/19 03:48:50;;;;;;;53.05;25.08;;;;;;;1.52;89.37;101203.37;1803496;79;20962;-70
2020/12/19 03:51:21;;;;;;;49.73;25.02;;;;;;;1.54;89.32;101200.38;1803584;79;20942;-70
2020/12/19 03:53:49;;;;;;;53.25;25.50;;;;;;;1.55;89.29;101197.39;1803520;79;21361;-70
2020/12/19 03:56:17;;;;;;;49.48;25.10;;;;;;;1.57;89.37;101195.67;1803504;79;21476;-70
2020/12/19 03:58:45;;;;;;;52.88;25.88;;;;;;;1.58;89.42;101202.52;1803569;79;20942;-70
2020/12/19 04:01:14;;;;;;;54.27;25.15;;;;;;;1.58;89.37;101204.66;1803436;79;20903;-70
2020/12/19 04:03:42;;;;;;;56.83;24.20;;;;;;;1.60;89.45;101207.23;1803547;79;20887;-70
2020/12/19 04:06:11;;;;;;;53.87;24.55;;;;;;;1.60;89.46;101207.23;1803593;79;21488;-70
2020/12/19 04:08:40;;;;;;;50.48;24.82;;;;;;;1.59;89.32;101208.08;1803405;79;21021;-70
2020/12/19 04:11:08;;;;;;;52.15;25.25;;;;;;;1.56;89.39;101209.36;1803583;79;21563;-71
2020/12/19 04:13:37;;;;;;;55.63;26.15;;;;;;;1.53;89.47;101211.50;1803484;79;21013;-70
2020/12/19 04:16:05;;;;;;;51.08;26.35;;;;;;;1.52;89.59;101208.94;1803533;79;20938;-71
2020/12/19 04:18:33;;;;;;;55.03;26.35;;;;;;;1.50;89.78;101214.06;1803492;79;21233;-71
2020/12/19 04:21:02;;;;;;;51.63;26.00;;;;;;;1.52;89.96;101213.64;1803410;79;20963;-70
2020/12/19 04:23:30;;;;;;;53.83;25.43;;;;;;;1.53;89.99;101207.66;1803479;79;21441;-70
2020/12/19 04:25:59;;;;;;;52.85;25.43;;;;;;;1.57;90.04;101211.08;1803565;79;21437;-70
2020/12/19 04:28:28;;;;;;;53.85;26.20;;;;;;;1.57;89.92;101200.38;1803523;79;21005;-70
2020/12/19 04:30:56;;;;;;;55.95;26.27;;;;;;;1.58;89.86;101216.64;1803506;79;21149;-70
2020/12/19 04:33:24;;;;;;;50.17;23.65;;;;;;;1.58;89.93;101215.35;1803426;79;20938;-70
2020/12/19 04:35:52;;;;;;;41.85;22.77;;;;;;;1.60;89.81;101220.06;1803481;79;20934;-71
2020/12/19 04:38:21;;;;;;;47.15;22.50;;;;;;;1.61;89.82;101222.59;1803415;79;20965;-71
2020/12/19 04:40:49;;;;;;;48.25;22.62;;;;;;;1.62;89.74;101219.17;1810932;79;20933;-71
2020/12/19 04:43:18;;;;;;;48.68;23.22;;;;;;;1.63;89.55;101213.18;1814653;79;22159;-70
2020/12/19 04:45:48;;;;;;;45.50;21.93;;;;;;;1.62;89.49;101217.89;1814514;79;21613;-70
2020/12/19 04:48:19;;;;;;;43.78;22.27;;;;;;;1.63;89.73;101216.17;1814565;79;20978;-70
2020/12/19 04:50:47;;;;;;;45.98;22.35;;;;;;;1.65;89.83;101216.60;1814540;79;21052;-70
2020/12/19 04:53:17;;;;;;;50.80;23.52;;;;;;;1.66;89.88;101218.31;1814600;79;21463;-70
2020/12/19 04:55:46;;;;;;;47.83;22.35;;;;;;;1.71;89.90;101213.61;1814601;79;21187;-70
2020/12/19 04:58:19;;;;;;;52.17;24.20;;;;;;;1.75;89.84;101213.61;1814460;79;20958;-70
2020/12/19 05:00:47;;;;;;;44.60;23.40;;;;;;;1.79;89.77;101223.02;1814563;79;21052;-70
2020/12/19 05:03:15;;;;;;;43.15;21.55;;;;;;;1.82;89.70;101232.44;1814566;79;20997;-70
2020/12/19 05:05:44;;;;;;;42.03;21.05;;;;;;;1.84;89.65;101230.29;1814546;79;20922;-70
2020/12/19 05:08:12;;;;;;;42.85;20.52;;;;;;;1.86;89.56;101228.58;1814563;79;21362;-70
2020/12/19 05:10:43;;;;;;;40.55;21.42;;;;;;;1.91;89.43;101232.00;1814158;79;20945;-70
2020/12/19 05:13:11;;;;;;;36.55;19.60;;;;;;;1.93;89.35;101235.42;1814483;79;20957;-70
2020/12/19 05:15:39;;;;;;;31.35;17.17;;;;;;;1.96;89.24;101230.71;1814601;79;21571;-70
2020/12/19 05:18:07;;;;;;;31.25;18.10;;;;;;;1.99;89.13;101234.13;1814547;79;21025;-70
2020/12/19 05:20:36;;;;;;;31.85;18.73;;;;;;;2.04;88.87;101234.52;1814549;79;21207;-70
2020/12/19 05:23:08;;;;;;;27.32;17.20;;;;;;;2.05;88.58;101234.95;1756017;79;20906;-70
2020/12/19 05:25:38;;;;;;;27.85;15.45;;;;;;;2.06;88.28;101234.94;1814679;79;21361;-71
2020/12/19 05:28:06;;;;;;;24.57;15.53;;;;;;;2.08;87.92;101240.08;1814502;78;21002;-70
2020/12/19 05:30:35;;;;;;;25.10;15.30;;;;;;;2.05;87.71;101238.80;1779907;79;20941;-70
2020/12/19 05:33:03;;;;;;;23.42;14.60;;;;;;;2.05;87.89;101236.23;1814614;79;22062;-70
2020/12/19 05:35:31;;;;;;;24.55;14.65;;;;;;;2.05;87.98;101242.66;1814504;79;21424;-70
2020/12/19 05:38:04;;;;;;;23.85;14.50;;;;;;;2.07;87.90;101249.93;1814575;79;20962;-70
2020/12/19 05:40:33;;;;;;;21.82;13.03;;;;;;;2.09;87.81;101254.64;1814409;79;21566;-70
2020/12/19 05:43:02;;;;;;;19.98;13.28;;;;;;;2.11;87.76;101250.35;1814641;79;21479;-71
2020/12/19 05:45:30;;;;;;;20.35;13.58;;;;;;;2.16;87.67;101255.05;1814524;79;21262;-70
2020/12/19 05:47:58;;;;;;;18.10;12.65;;;;;;;2.18;87.54;101257.19;1814500;79;20989;-70
2020/12/19 05:50:26;;;;;;;19.12;12.10;;;;;;;2.21;87.44;101254.63;1814537;79;20945;-70
2020/12/19 05:52:55;;;;;;;18.60;11.80;;;;;;;2.21;87.12;101250.77;1814449;79;20946;-70
2020/12/19 05:55:23;;;;;;;18.70;12.30;;;;;;;2.21;86.67;101258.05;1814622;79;20903;-71
2020/12/19 05:57:51;;;;;;;19.60;13.60;;;;;;;2.17;86.47;101254.20;1814471;79;21803;-71
2020/12/19 06:00:20;;;;;;;20.55;14.10;;;;;;;2.15;86.36;101250.77;1814442;79;20989;-71
2020/12/19 06:02:48;;;;;;;23.02;14.10;;;;;;;2.12;86.32;101252.92;1814520;78;21104;-71
2020/12/19 06:05:17;;;;;;;23.25;14.70;;;;;;;2.09;86.26;101250.78;1781183;79;21017;-71
2020/12/19 06:07:47;;;;;;;23.02;15.75;;;;;;;2.07;86.33;101262.34;1814504;79;20938;-71
2020/12/19 06:10:17;;;;;;;24.05;15.35;;;;;;;2.06;86.25;101263.63;1814555;79;21134;-70
2020/12/19 06:13:08;;;;;;;22.22;13.60;;;;;;;2.04;86.31;101261.49;1814445;79;20946;-71
2020/12/19 06:16:10;;;;;;;27.17;15.88;;;;;;;2.00;86.32;101261.50;1814543;79;20890;-71
2020/12/19 06:18:56;;;;;;;25.95;15.40;;;;;;;1.97;86.37;101265.38;1814529;79;20994;-71
2020/12/19 06:21:25;;;;;;;29.80;17.73;;;;;;;1.95;86.64;101271.37;1814844;79;20938;-71
2020/12/19 06:23:53;;;;;;;30.37;16.82;;;;;;;1.96;86.75;101271.37;1814430;78;21194;-71
2020/12/19 06:26:36;;;;;;;26.30;15.90;;;;;;;1.97;86.72;101272.23;1814444;79;21879;-71
2020/12/19 06:29:05;;;;;;;26.17;17.30;;;;;;;1.94;86.71;101270.52;1812879;79;20902;-71
2020/12/19 06:31:33;;;;;;;28.07;17.23;;;;;;;1.94;86.87;101276.95;1814447;79;20883;-70
2020/12/19 06:34:04;;;;;;;30.12;17.62;;;;;;;1.93;86.89;101283.36;1814506;79;20942;-72
2020/12/19 06:36:33;;;;;;;25.68;15.58;;;;;;;1.92;86.97;101277.37;1814399;79;40104;-71
2020/12/19 06:39:10;;;;;;;26.15;15.23;;;;;;;1.94;87.06;101278.23;1814479;79;21369;-70
2020/12/19 06:41:49;;;;;;;27.52;16.32;;;;;;;1.96;87.08;101281.66;1814421;79;21538;-72
2020/12/19 06:44:30;;;;;;;28.23;16.60;;;;;;;1.96;87.11;101282.94;1814488;79;21033;-71
2020/12/19 06:47:01;;;;;;;28.95;14.50;;;;;;;1.97;87.05;101287.22;1814587;79;21562;-71
2020/12/19 06:49:32;;;;;;;26.77;15.65;;;;;;;1.98;87.12;101285.50;1814387;79;21278;-71
2020/12/19 06:52:10;;;;;;;29.52;16.80;;;;;;;1.99;87.09;101296.21;1814455;79;20986;-70
2020/12/19 06:54:46;;;;;;;36.13;18.92;;;;;;;2.00;87.17;101294.89;1814497;79;21005;-70
2020/12/19 06:57:28;;;;;;;40.43;20.27;;;;;;;2.00;87.11;101291.03;1814405;79;20942;-71
2020/12/19 07:00:17;;;;;;;44.95;24.52;;;;;;;2.00;87.20;101289.75;1814498;79;21514;-71
2020/12/19 07:02:59;;;;;;;41.77;23.45;;;;;;;2.01;87.18;101297.03;1814571;79;21462;-70
2020/12/19 07:05:35;;;;;;;41.13;22.02;;;;;;;2.01;87.24;101295.32;1814334;79;21630;-70
2020/12/19 07:08:22;;;;;;;40.85;22.73;;;;;;;2.03;87.30;101295.75;1813857;79;21041;-70
2020/12/19 07:10:51;;;;;;;40.15;22.48;;;;;;;2.05;87.32;101290.18;1814266;79;21005;-71
2020/12/19 07:13:20;;;;;;;34.30;19.85;;;;;;;2.06;87.33;101292.75;1814436;79;20941;-70
2020/12/19 07:15:50;;;;;;;36.63;21.42;;;;;;;2.08;87.34;101294.03;1814378;79;21134;-70
2020/12/19 07:18:36;;;;;;;37.55;20.20;;;;;;;2.09;87.33;101291.46;1814233;79;21033;-69
2020/12/19 07:21:05;;;;;;;;;;;;;;;2.10;87.45;101303.45;1817191;79;21013;-70
2020/12/19 07:23:35;;;;;;;40.35;22.00;;;;;;;2.14;87.54;101300.45;1814467;79;20133;-70
2020/12/19 07:26:07;;;;;;;40.83;25.20;;;;;;;2.15;87.52;101298.31;1814572;79;21005;-69
2020/12/19 07:28:36;;;;;;;37.38;21.90;;;;;;;2.14;87.44;101295.31;1814534;79;22063;-69
2020/12/19 07:31:05;;;;;;;31.33;17.73;;;;;;;2.15;87.55;101295.31;1814375;79;21021;-69
2020/12/19 07:33:33;;;;;;;32.30;16.62;;;;;;;2.17;87.56;101296.59;1781349;79;21484;-69
2020/12/19 07:36:02;;;;;;;31.80;18.27;;;;;;;2.18;87.56;101294.45;1814471;79;20942;-69
2020/12/19 07:38:31;;;;;;;36.00;18.50;;;;;;;2.19;87.54;101303.44;1814603;79;20981;-69
2020/12/19 07:40:59;;;;;;;35.20;18.60;;;;;;;2.21;87.58;101299.59;1814567;79;21571;-69
2020/12/19 07:43:29;;;;;;;38.58;18.70;;;;;;;2.21;87.50;101307.30;1814550;79;21021;-69
2020/12/19 07:45:57;;;;;;;38.83;19.75;;;;;;;2.20;87.50;101306.44;1814628;79;21025;-69
2020/12/19 07:48:26;;;;;;;45.12;19.45;;;;;;;2.21;87.42;101312.44;1814553;79;20945;-69
2020/12/19 07:50:54;;;;;;;39.33;20.00;;;;;;;2.20;87.47;101310.72;1814633;79;20918;-69
2020/12/19 07:53:22;;;;;;;42.30;22.00;;;;;;;2.20;87.58;101320.58;1814588;79;21188;-69
2020/12/19 07:55:51;;;;;;;36.95;20.30;;;;;;;2.20;87.91;101321.00;1814601;79;21008;-69
2020/12/19 07:58:20;;;;;;;38.33;20.70;;;;;;;2.23;87.88;101318.43;1814572;78;21013;-70
2020/12/19 08:00:49;;;;;;;44.05;21.97;;;;;;;2.24;87.77;101319.72;1814546;78;20981;-69
2020/12/19 08:03:18;;;;;;;41.60;20.50;;;;;;;2.25;87.71;101321.42;1814679;79;21029;-70
2020/12/19 08:05:55;;;;;;;36.25;19.50;;;;;;;2.26;87.74;101319.28;1814679;79;21495;-69
2020/12/19 08:08:24;;;;;;;40.40;20.10;;;;;;;2.26;87.77;101315.86;1814560;79;21013;-70
2020/12/19 08:11:01;;;;;;;43.25;21.17;;;;;;;2.28;87.83;101314.14;1814556;79;20966;-70
2020/12/19 08:13:30;;;;;;;43.23;19.77;;;;;;;2.29;87.86;101306.86;1814570;79;20989;-69
2020/12/19 08:15:58;;;;;;;37.38;19.42;;;;;;;2.30;87.86;101308.57;1814599;79;21009;-69
2020/12/19 08:18:26;;;;;;;36.73;18.40;;;;;;;2.31;87.80;101303.86;1814507;79;21194;-69
2020/12/19 08:20:55;;;;;;;37.88;19.35;;;;;;;2.31;87.83;101307.28;1814508;79;21461;-69
2020/12/19 08:23:23;;;;;;;40.78;19.35;;;;;;;2.33;87.97;101300.42;1814674;79;21306;-69
2020/12/19 08:25:51;;;;;;;39.90;19.15;;;;;;;2.37;87.93;101301.70;1814625;79;21001;-69
2020/12/19 08:28:20;;;;;;;38.88;19.77;;;;;;;2.39;87.96;101299.56;1814591;79;20970;-69
2020/12/19 08:30:50;;;;;;;39.80;17.92;;;;;;;2.39;88.02;101291.85;1814247;79;21359;-70
2020/12/19 08:33:18;;;;;;;36.10;17.45;;;;;;;2.43;88.02;101288.38;1814472;79;21013;-70
2020/12/19 08:35:47;;;;;;;30.60;17.48;;;;;;;2.44;87.92;101280.24;1814531;78;20894;-70
2020/12/19 08:38:21;;;;;;;31.25;16.67;;;;;;;2.45;87.92;101278.95;1814527;79;20915;-69
2020/12/19 08:40:53;;;;;;;32.30;17.52;;;;;;;2.45;87.84;101280.67;1812620;79;20931;-69
2020/12/19 08:43:36;;;;;;;31.40;16.97;;;;;;;2.45;88.05;101277.67;1803451;79;21325;-69
2020/12/19 08:46:14;;;;;;;32.60;17.82;;;;;;;2.48;88.01;101270.38;1803432;79;20934;-69
2020/12/19 08:48:42;;;;;;;40.10;21.97;;;;;;;2.50;88.00;101272.09;1803417;79;20919;-69
2020/12/19 08:51:17;;;;;;;35.08;21.45;;;;;;;2.51;87.93;101266.52;1803513;79;21410;-69
2020/12/19 08:53:46;;;;;;;32.58;17.50;;;;;;;2.51;87.95;101264.80;1803607;79;20895;-69
2020/12/19 08:56:17;;;;;;;33.38;18.02;;;;;;;2.53;88.03;101278.50;1803454;79;21249;-69
2020/12/19 08:58:54;;;;;;;32.95;18.27;;;;;;;2.55;88.00;101274.64;1803470;79;20946;-69
2020/12/19 09:01:23;;;;;;;34.67;19.17;;;;;;;2.56;88.06;101272.50;1779154;79;20938;-70
2020/12/19 09:03:53;;;;;;;36.35;18.23;;;;;;;2.57;88.18;101264.78;1803509;79;21377;-70
2020/12/19 09:06:21;;;;;;;32.23;17.32;;;;;;;2.59;88.18;101269.48;1803400;79;20942;-70
2020/12/19 09:08:49;;;;;;;35.88;20.27;;;;;;;2.60;88.21;101278.05;1803431;79;21195;-70
2020/12/19 09:11:27;;;;;;;33.98;18.10;;;;;;;2.62;88.15;101278.48;1803505;79;21057;-69
2020/12/19 09:14:05;;;;;;;32.63;17.80;;;;;;;2.63;88.18;101282.77;1803340;79;20930;-70
2020/12/19 09:16:34;;;;;;;29.60;17.95;;;;;;;2.63;88.02;101282.77;1803416;79;20930;-69
2020/12/19 09:19:17;;;;;;;29.87;17.67;;;;;;;2.64;88.12;101279.76;1803414;79;20930;-70
2020/12/19 09:21:57;;;;;;;32.60;18.45;;;;;;;2.63;88.17;101281.47;1803569;79;21647;-70
2020/12/19 09:24:27;;;;;;;38.83;20.00;;;;;;;2.64;88.22;101281.05;1803401;79;20938;-70
2020/12/19 09:26:56;;;;;;;34.10;21.00;;;;;;;2.64;88.21;101281.90;1803510;79;20902;-70
2020/12/19 09:29:24;;;;;;;41.23;23.45;;;;;;;2.66;88.21;101285.75;1803375;79;21484;-69
2020/12/19 09:31:52;;;;;;;48.73;24.63;;;;;;;2.65;88.17;101275.04;1803438;79;20887;-70
2020/12/19 09:34:21;;;;;;;37.75;20.50;;;;;;;2.64;88.22;101272.90;1803464;79;21263;-70
2020/12/19 09:36:50;;;;;;;33.80;20.27;;;;;;;2.63;88.26;101273.76;1803367;79;20982;-70
2020/12/19 09:39:18;;;;;;;38.48;20.62;;;;;;;2.63;88.43;101276.77;1803353;79;21034;-70
2020/12/19 09:41:46;;;;;;;38.38;21.90;;;;;;;2.62;88.39;101273.34;1803267;79;20923;-70
2020/12/19 09:44:15;;;;;;;41.37;22.60;;;;;;;2.63;88.52;101273.76;1803447;79;20910;-70
2020/12/19 09:46:47;;;;;;;40.60;20.92;;;;;;;2.65;88.55;101273.33;1803498;79;21215;-70
2020/12/19 09:49:15;;;;;;;32.75;18.07;;;;;;;2.65;88.59;101278.47;1803348;79;20962;-70
2020/12/19 09:51:43;;;;;;;42.00;20.65;;;;;;;2.65;88.70;101279.75;1803537;79;21349;-70
2020/12/19 09:54:11;;;;;;;33.60;19.32;;;;;;;2.68;88.66;101276.31;1803422;79;21543;-71
2020/12/19 09:56:40;;;;;;;36.63;19.15;;;;;;;2.70;88.68;101278.88;1803417;79;21002;-71
2020/12/19 09:59:08;;;;;;;30.62;17.73;;;;;;;2.72;88.70;101280.59;1803342;79;21361;-71
2020/12/19 10:01:39;;;;;;;34.75;19.07;;;;;;;2.74;88.64;101281.88;1803370;79;21013;-70
2020/12/19 10:04:07;;;;;;;32.58;18.82;;;;;;;2.75;88.57;101279.72;1803432;79;20934;-70
2020/12/19 10:06:35;;;;;;;34.15;18.40;;;;;;;2.77;88.53;101270.28;1803322;79;20895;-70
2020/12/19 10:09:04;;;;;;;30.40;17.80;;;;;;;2.77;88.52;101269.86;1803452;79;22058;-70
2020/12/19 10:11:32;;;;;;;35.35;18.45;;;;;;;2.76;88.53;101274.57;1803343;79;21196;-70
2020/12/19 10:14:01;;;;;;;36.10;18.45;;;;;;;2.77;88.77;101271.57;1803340;79;21547;-70
2020/12/19 10:16:30;;;;;;;33.33;17.48;;;;;;;2.78;88.81;101272.85;1803377;79;21013;-70
2020/12/19 10:18:59;;;;;;;34.48;18.67;;;;;;;2.82;88.78;101276.23;1803402;79;21593;-69
2020/12/19 10:21:27;;;;;;;36.30;17.87;;;;;;;2.83;88.70;101282.66;1803479;79;21483;-69
2020/12/19 10:23:55;;;;;;;37.73;19.65;;;;;;;2.84;88.63;101274.08;1803337;79;21272;-69
2020/12/19 10:26:23;;;;;;;45.15;21.77;;;;;;;2.84;88.72;101266.80;1803409;79;20961;-69
2020/12/19 10:28:51;;;;;;;38.42;20.62;;;;;;;2.85;88.71;101270.64;1803397;79;20986;-69
2020/12/19 10:31:28;;;;;;;34.53;19.85;;;;;;;2.87;88.67;101274.06;1803365;79;21566;-69
2020/12/19 10:33:56;;;;;;;36.55;19.07;;;;;;;2.89;88.62;101271.48;1803393;79;20998;-69
2020/12/19 10:36:25;;;;;;;36.45;19.82;;;;;;;2.88;88.60;101268.06;1803354;79;21307;-69
2020/12/19 10:38:53;;;;;;;43.20;21.55;;;;;;;2.89;88.60;101267.63;1803305;79;21049;-69
2020/12/19 10:41:21;;;;;;;47.78;21.90;;;;;;;2.90;88.64;101274.05;1803287;79;21047;-69
2020/12/19 10:43:51;;;;;;;39.85;21.27;;;;;;;2.91;88.54;101270.63;1803408;79;21448;-69
2020/12/19 10:46:27;;;;;;;51.90;22.75;;;;;;;2.90;88.44;101275.34;1803481;79;21563;-69
2020/12/19 10:48:55;;;;;;;;;;;;;;;2.89;88.46;101277.48;1806045;79;21236;-69
2020/12/19 10:51:28;;;;;;;43.98;22.70;;;;;;;2.88;88.66;101276.21;1803317;79;20154;-69
2020/12/19 10:53:56;;;;;;;40.60;21.60;;;;;;;2.86;88.73;101275.36;1803360;79;20993;-69
2020/12/19 10:56:25;;;;;;;42.35;21.55;;;;;;;2.87;88.86;101277.92;1803334;79;20934;-69
2020/12/19 10:58:53;;;;;;;43.52;23.30;;;;;;;2.87;88.85;101265.06;1803347;79;20967;-69
2020/12/19 11:01:21;;;;;;;40.20;21.37;;;;;;;2.89;88.95;101272.77;1803376;79;21645;-69
2020/12/19 11:03:49;;;;;;;37.55;21.00;;;;;;;2.89;88.99;101268.48;1803286;79;21005;-69
2020/12/19 11:06:25;;;;;;;41.45;21.15;;;;;;;2.88;89.03;101273.20;1803324;79;21018;-69
2020/12/19 11:08:54;;;;;;;49.77;24.67;;;;;;;2.88;89.20;101275.78;1803592;79;21009;-69
2020/12/19 11:11:24;;;;;;;39.78;23.73;;;;;;;2.90;89.39;101279.63;1802867;79;20931;-69
2020/12/19 11:13:52;;;;;;;48.55;23.95;;;;;;;2.91;89.37;101277.48;1802725;79;22107;-69
2020/12/19 11:16:23;;;;;;;44.05;23.60;;;;;;;2.90;89.38;101270.63;1802925;79;21540;-69
2020/12/19 11:18:51;;;;;;;43.68;24.07;;;;;;;2.92;89.49;101274.05;1800822;79;20959;-69
2020/12/19 11:21:19;;;;;;;39.83;20.32;;;;;;;2.92;89.51;101276.19;1801364;78;21578;-69
2020/12/19 11:23:48;;;;;;;42.73;21.23;;;;;;;2.94;89.56;101265.89;1801471;79;21038;-69
2020/12/19 11:26:20;;;;;;;49.30;21.10;;;;;;;2.97;89.53;101270.59;1801490;78;21338;-69
2020/12/19 11:28:50;;;;;;;40.15;21.12;;;;;;;2.98;89.35;101275.30;1801481;79;21503;-69
2020/12/19 11:31:26;;;;;;;44.70;22.27;;;;;;;3.00;89.33;101277.44;1801526;79;21010;-69